sensor_id;sensor_type;location;lat;lon;timestamp;P1;durP1;ratioP1;P2;durP2;ratioP2
58338;SDS011;48278;52.704;6.536;2022-10-31T00:01:19;33.88;;;12.63;;
58338;SDS011;48278;52.704;6.536;2022-10-31T00:03:45;31.55;;;12.63;;
58338;SDS011;48278;52.704;6.536;2022-10-31T00:06:11;32.55;;;12.38;;
58338;SDS011;48278;52.704;6.536;2022-10-31T00:08:36;33.55;;;13.00;;
58338;SDS011;48278;52.704;6.536;2022-10-31T00:11:02;29.80;;;11.63;;
58338;SDS011;48278;52.704;6.536;2022-10-31T00:13:28;32.63;;;12.82;;
58338;SDS011;48278;52.704;6.536;2022-10-31T00:15:54;30.75;;;11.73;;
58338;SDS011;48278;52.704;6.536;2022-10-31T00:18:20;32.33;;;11.80;;
58338;SDS011;48278;52.704;6.536;2022-10-31T00:20:45;28.15;;;12.18;;
58338;SDS011;48278;52.704;6.536;2022-10-31T00:23:11;29.80;;;11.77;;
58338;SDS011;48278;52.704;6.536;2022-10-31T00:25:38;25.98;;;11.60;;
58338;SDS011;48278;52.704;6.536;2022-10-31T00:28:05;33.22;;;12.13;;
58338;SDS011;48278;52.704;6.536;2022-10-31T00:30:32;31.02;;;12.52;;
58338;SDS011;48278;52.704;6.536;2022-10-31T00:32:58;30.70;;;12.50;;
58338;SDS011;48278;52.704;6.536;2022-10-31T00:35:24;29.92;;;12.30;;
58338;SDS011;48278;52.704;6.536;2022-10-31T00:37:50;28.30;;;12.77;;
58338;SDS011;48278;52.704;6.536;2022-10-31T00:40:17;36.85;;;14.23;;
58338;SDS011;48278;52.704;6.536;2022-10-31T00:42:42;33.58;;;13.35;;
58338;SDS011;48278;52.704;6.536;2022-10-31T00:45:09;33.80;;;14.05;;
58338;SDS011;48278;52.704;6.536;2022-10-31T00:47:35;37.33;;;14.45;;
58338;SDS011;48278;52.704;6.536;2022-10-31T00:50:02;32.67;;;13.53;;
58338;SDS011;48278;52.704;6.536;2022-10-31T00:52:28;32.70;;;13.70;;
58338;SDS011;48278;52.704;6.536;2022-10-31T00:54:54;44.92;;;15.40;;
58338;SDS011;48278;52.704;6.536;2022-10-31T00:57:20;40.60;;;14.48;;
58338;SDS011;48278;52.704;6.536;2022-10-31T00:59:45;41.15;;;14.93;;
58338;SDS011;48278;52.704;6.536;2022-10-31T01:02:11;40.28;;;15.35;;
58338;SDS011;48278;52.704;6.536;2022-10-31T01:04:37;42.50;;;15.10;;
58338;SDS011;48278;52.704;6.536;2022-10-31T01:07:02;44.15;;;15.75;;
58338;SDS011;48278;52.704;6.536;2022-10-31T01:09:28;41.22;;;15.88;;
58338;SDS011;48278;52.704;6.536;2022-10-31T01:11:54;34.85;;;14.52;;
58338;SDS011;48278;52.704;6.536;2022-10-31T01:14:20;34.88;;;14.40;;
58338;SDS011;48278;52.704;6.536;2022-10-31T01:16:45;44.53;;;15.50;;
58338;SDS011;48278;52.704;6.536;2022-10-31T01:19:11;38.58;;;14.77;;
58338;SDS011;48278;52.704;6.536;2022-10-31T01:21:37;35.03;;;14.77;;
58338;SDS011;48278;52.704;6.536;2022-10-31T01:24:02;41.70;;;15.27;;
58338;SDS011;48278;52.704;6.536;2022-10-31T01:26:29;35.72;;;15.00;;
58338;SDS011;48278;52.704;6.536;2022-10-31T01:28:57;32.95;;;14.48;;
58338;SDS011;48278;52.704;6.536;2022-10-31T01:31:34;39.15;;;15.00;;
58338;SDS011;48278;52.704;6.536;2022-10-31T01:34:02;32.33;;;14.00;;
58338;SDS011;48278;52.704;6.536;2022-10-31T01:36:35;29.88;;;13.65;;
58338;SDS011;48278;52.704;6.536;2022-10-31T01:39:06;37.30;;;14.00;;
58338;SDS011;48278;52.704;6.536;2022-10-31T01:41:36;33.28;;;13.68;;
58338;SDS011;48278;52.704;6.536;2022-10-31T01:49:53;34.90;;;13.18;;
58338;SDS011;48278;52.704;6.536;2022-10-31T01:52:12;32.92;;;12.45;;
58338;SDS011;48278;52.704;6.536;2022-10-31T01:54:45;29.77;;;12.70;;
58338;SDS011;48278;52.704;6.536;2022-10-31T01:57:33;30.52;;;12.60;;
58338;SDS011;48278;52.704;6.536;2022-10-31T02:00:03;33.20;;;12.57;;
58338;SDS011;48278;52.704;6.536;2022-10-31T02:02:32;34.55;;;12.88;;
58338;SDS011;48278;52.704;6.536;2022-10-31T02:04:58;40.45;;;14.10;;
58338;SDS011;48278;52.704;6.536;2022-10-31T02:07:27;33.20;;;13.35;;
58338;SDS011;48278;52.704;6.536;2022-10-31T02:09:59;38.53;;;13.18;;
58338;SDS011;48278;52.704;6.536;2022-10-31T02:12:27;33.60;;;13.70;;
58338;SDS011;48278;52.704;6.536;2022-10-31T02:14:55;38.30;;;13.95;;
58338;SDS011;48278;52.704;6.536;2022-10-31T02:17:20;34.05;;;13.45;;
58338;SDS011;48278;52.704;6.536;2022-10-31T02:19:55;27.60;;;12.25;;
58338;SDS011;48278;52.704;6.536;2022-10-31T02:22:40;34.45;;;12.52;;
58338;SDS011;48278;52.704;6.536;2022-10-31T02:31:09;31.58;;;12.07;;
58338;SDS011;48278;52.704;6.536;2022-10-31T02:33:52;30.95;;;12.27;;
58338;SDS011;48278;52.704;6.536;2022-10-31T02:36:25;30.13;;;11.50;;
58338;SDS011;48278;52.704;6.536;2022-10-31T02:47:27;32.10;;;12.45;;
58338;SDS011;48278;52.704;6.536;2022-10-31T02:52:31;29.88;;;12.77;;
58338;SDS011;48278;52.704;6.536;2022-10-31T02:54:57;34.33;;;13.23;;
58338;SDS011;48278;52.704;6.536;2022-10-31T02:57:30;27.90;;;13.20;;
58338;SDS011;48278;52.704;6.536;2022-10-31T03:00:05;28.15;;;11.68;;
58338;SDS011;48278;52.704;6.536;2022-10-31T03:08:00;29.50;;;12.50;;
58338;SDS011;48278;52.704;6.536;2022-10-31T03:15:47;31.88;;;12.57;;
58338;SDS011;48278;52.704;6.536;2022-10-31T03:18:25;32.38;;;13.18;;
58338;SDS011;48278;52.704;6.536;2022-10-31T03:21:04;36.90;;;13.18;;
58338;SDS011;48278;52.704;6.536;2022-10-31T03:23:32;28.08;;;12.98;;
58338;SDS011;48278;52.704;6.536;2022-10-31T03:26:00;34.28;;;13.77;;
58338;SDS011;48278;52.704;6.536;2022-10-31T03:28:31;30.13;;;13.02;;
58338;SDS011;48278;52.704;6.536;2022-10-31T03:31:01;31.08;;;12.65;;
58338;SDS011;48278;52.704;6.536;2022-10-31T03:33:30;31.42;;;;;
58338;SDS011;48278;52.704;6.536;2022-10-31T03:36:05;36.42;;;12.73;;
58338;SDS011;48278;52.704;6.536;2022-10-31T03:38:35;31.08;;;13.30;;
58338;SDS011;48278;52.704;6.536;2022-10-31T03:41:02;32.20;;;13.88;;
58338;SDS011;48278;52.704;6.536;2022-10-31T03:43:32;28.73;;;13.32;;
58338;SDS011;48278;52.704;6.536;2022-10-31T03:46:01;28.38;;;12.88;;
58338;SDS011;48278;52.704;6.536;2022-10-31T03:48:27;32.95;;;14.27;;
58338;SDS011;48278;52.704;6.536;2022-10-31T03:53:24;28.85;;;12.77;;
58338;SDS011;48278;52.704;6.536;2022-10-31T03:58:45;33.03;;;13.52;;
58338;SDS011;48278;52.704;6.536;2022-10-31T04:01:23;31.42;;;13.65;;
58338;SDS011;48278;52.704;6.536;2022-10-31T04:03:51;34.33;;;13.88;;
58338;SDS011;48278;52.704;6.536;2022-10-31T04:06:18;37.53;;;13.65;;
58338;SDS011;48278;52.704;6.536;2022-10-31T04:08:48;31.58;;;14.10;;
58338;SDS011;48278;52.704;6.536;2022-10-31T04:11:21;30.95;;;13.65;;
58338;SDS011;48278;52.704;6.536;2022-10-31T04:13:52;31.10;;;13.55;;
58338;SDS011;48278;52.704;6.536;2022-10-31T04:16:19;31.88;;;14.00;;
58338;SDS011;48278;52.704;6.536;2022-10-31T04:21:12;34.90;;;13.23;;
58338;SDS011;48278;52.704;6.536;2022-10-31T04:23:38;36.58;;;13.55;;
58338;SDS011;48278;52.704;6.536;2022-10-31T04:26:03;33.92;;;15.15;;
58338;SDS011;48278;52.704;6.536;2022-10-31T04:28:29;38.60;;;15.25;;
58338;SDS011;48278;52.704;6.536;2022-10-31T04:30:55;34.35;;;14.02;;
58338;SDS011;48278;52.704;6.536;2022-10-31T04:33:21;34.70;;;14.35;;
58338;SDS011;48278;52.704;6.536;2022-10-31T04:35:47;35.85;;;14.27;;
58338;SDS011;48278;52.704;6.536;2022-10-31T04:38:12;34.65;;;15.13;;
58338;SDS011;48278;52.704;6.536;2022-10-31T04:40:38;35.55;;;14.23;;
58338;SDS011;48278;52.704;6.536;2022-10-31T04:43:04;35.58;;;15.13;;
58338;SDS011;48278;52.704;6.536;2022-10-31T04:45:30;42.70;;;15.82;;
58338;SDS011;48278;52.704;6.536;2022-10-31T04:47:55;41.92;;;14.73;;
58338;SDS011;48278;52.704;6.536;2022-10-31T04:50:21;33.60;;;14.18;;
58338;SDS011;48278;52.704;6.536;2022-10-31T04:52:47;32.88;;;14.60;;
58338;SDS011;48278;52.704;6.536;2022-10-31T04:55:13;33.83;;;13.55;;
58338;SDS011;48278;52.704;6.536;2022-10-31T04:57:46;28.53;;;13.73;;
58338;SDS011;48278;52.704;6.536;2022-10-31T05:00:14;33.90;;;13.85;;
58338;SDS011;48278;52.704;6.536;2022-10-31T05:02:44;37.20;;;14.02;;
58338;SDS011;48278;52.704;6.536;2022-10-31T05:05:12;34.67;;;14.00;;
58338;SDS011;48278;52.704;6.536;2022-10-31T05:07:42;33.60;;;14.30;;
58338;SDS011;48278;52.704;6.536;2022-10-31T05:10:10;33.75;;;14.02;;
58338;SDS011;48278;52.704;6.536;2022-10-31T05:12:37;42.00;;;14.68;;
58338;SDS011;48278;52.704;6.536;2022-10-31T05:15:04;35.53;;;14.73;;
58338;SDS011;48278;52.704;6.536;2022-10-31T05:19:56;38.22;;;14.57;;
58338;SDS011;48278;52.704;6.536;2022-10-31T05:22:23;39.85;;;15.00;;
58338;SDS011;48278;52.704;6.536;2022-10-31T05:24:49;34.83;;;14.13;;
58338;SDS011;48278;52.704;6.536;2022-10-31T05:27:15;39.10;;;14.45;;
58338;SDS011;48278;52.704;6.536;2022-10-31T05:29:40;35.72;;;14.25;;
58338;SDS011;48278;52.704;6.536;2022-10-31T05:32:06;31.30;;;13.00;;
58338;SDS011;48278;52.704;6.536;2022-10-31T05:34:32;34.83;;;13.95;;
58338;SDS011;48278;52.704;6.536;2022-10-31T05:36:57;31.45;;;14.02;;
58338;SDS011;48278;52.704;6.536;2022-10-31T05:39:23;30.73;;;13.88;;
58338;SDS011;48278;52.704;6.536;2022-10-31T05:41:48;31.95;;;14.57;;
58338;SDS011;48278;52.704;6.536;2022-10-31T05:44:14;34.53;;;14.95;;
58338;SDS011;48278;52.704;6.536;2022-10-31T05:46:40;32.08;;;13.20;;
58338;SDS011;48278;52.704;6.536;2022-10-31T05:49:06;41.38;;;14.68;;
58338;SDS011;48278;52.704;6.536;2022-10-31T05:51:31;35.67;;;14.18;;
58338;SDS011;48278;52.704;6.536;2022-10-31T05:53:57;35.63;;;14.75;;
58338;SDS011;48278;52.704;6.536;2022-10-31T05:56:23;31.13;;;13.88;;
58338;SDS011;48278;52.704;6.536;2022-10-31T05:58:48;32.60;;;14.27;;
58338;SDS011;48278;52.704;6.536;2022-10-31T06:01:14;36.58;;;14.93;;
58338;SDS011;48278;52.704;6.536;2022-10-31T06:03:40;33.75;;;13.05;;
58338;SDS011;48278;52.704;6.536;2022-10-31T06:06:05;36.08;;;14.65;;
58338;SDS011;48278;52.704;6.536;2022-10-31T06:08:31;28.77;;;13.98;;
58338;SDS011;48278;52.704;6.536;2022-10-31T06:10:57;32.25;;;13.30;;
58338;SDS011;48278;52.704;6.536;2022-10-31T06:13:22;33.83;;;13.07;;
58338;SDS011;48278;52.704;6.536;2022-10-31T06:15:48;33.88;;;13.02;;
58338;SDS011;48278;52.704;6.536;2022-10-31T06:18:14;30.40;;;13.18;;
58338;SDS011;48278;52.704;6.536;2022-10-31T06:20:39;32.42;;;13.82;;
58338;SDS011;48278;52.704;6.536;2022-10-31T06:23:05;36.63;;;14.93;;
58338;SDS011;48278;52.704;6.536;2022-10-31T06:25:31;33.83;;;14.50;;
58338;SDS011;48278;52.704;6.536;2022-10-31T06:27:58;40.95;;;15.25;;
58338;SDS011;48278;52.704;6.536;2022-10-31T06:30:24;45.10;;;15.07;;
58338;SDS011;48278;52.704;6.536;2022-10-31T06:32:50;49.58;;;15.60;;
58338;SDS011;48278;52.704;6.536;2022-10-31T06:35:16;105.10;;;17.13;;
58338;SDS011;48278;52.704;6.536;2022-10-31T06:37:42;40.58;;;14.30;;
58338;SDS011;48278;52.704;6.536;2022-10-31T06:40:08;34.38;;;13.80;;
58338;SDS011;48278;52.704;6.536;2022-10-31T06:42:34;43.03;;;15.53;;
58338;SDS011;48278;52.704;6.536;2022-10-31T06:45:00;42.15;;;15.38;;
58338;SDS011;48278;52.704;6.536;2022-10-31T06:47:26;127.38;;;16.45;;
58338;SDS011;48278;52.704;6.536;2022-10-31T06:49:51;64.10;;;14.73;;
58338;SDS011;48278;52.704;6.536;2022-10-31T06:52:17;60.20;;;16.50;;
58338;SDS011;48278;52.704;6.536;2022-10-31T06:54:42;39.38;;;14.30;;
58338;SDS011;48278;52.704;6.536;2022-10-31T06:57:08;37.47;;;13.63;;
58338;SDS011;48278;52.704;6.536;2022-10-31T06:59:34;34.05;;;12.35;;
58338;SDS011;48278;52.704;6.536;2022-10-31T07:02:00;35.90;;;12.95;;
58338;SDS011;48278;52.704;6.536;2022-10-31T07:04:26;25.67;;;11.93;;
58338;SDS011;48278;52.704;6.536;2022-10-31T07:06:51;26.90;;;12.48;;
58338;SDS011;48278;52.704;6.536;2022-10-31T07:09:17;27.98;;;12.85;;
58338;SDS011;48278;52.704;6.536;2022-10-31T07:11:43;27.83;;;13.18;;
58338;SDS011;48278;52.704;6.536;2022-10-31T07:14:09;29.20;;;13.98;;
58338;SDS011;48278;52.704;6.536;2022-10-31T07:16:35;34.72;;;14.25;;
58338;SDS011;48278;52.704;6.536;2022-10-31T07:19:01;29.73;;;14.03;;
58338;SDS011;48278;52.704;6.536;2022-10-31T07:21:27;38.45;;;15.50;;
58338;SDS011;48278;52.704;6.536;2022-10-31T07:23:52;42.35;;;15.27;;
58338;SDS011;48278;52.704;6.536;2022-10-31T07:26:19;41.63;;;16.02;;
58338;SDS011;48278;52.704;6.536;2022-10-31T07:28:46;46.85;;;16.10;;
58338;SDS011;48278;52.704;6.536;2022-10-31T07:31:13;67.47;;;17.52;;
58338;SDS011;48278;52.704;6.536;2022-10-31T07:33:38;66.22;;;18.02;;
58338;SDS011;48278;52.704;6.536;2022-10-31T07:36:04;69.15;;;18.25;;
58338;SDS011;48278;52.704;6.536;2022-10-31T07:38:30;65.05;;;18.25;;
58338;SDS011;48278;52.704;6.536;2022-10-31T07:40:56;53.10;;;18.38;;
58338;SDS011;48278;52.704;6.536;2022-10-31T07:43:22;62.03;;;17.27;;
58338;SDS011;48278;52.704;6.536;2022-10-31T07:45:51;60.42;;;17.88;;
58338;SDS011;48278;52.704;6.536;2022-10-31T07:48:17;46.50;;;17.58;;
58338;SDS011;48278;52.704;6.536;2022-10-31T07:50:43;41.60;;;16.83;;
58338;SDS011;48278;52.704;6.536;2022-10-31T07:53:10;47.70;;;19.10;;
58338;SDS011;48278;52.704;6.536;2022-10-31T07:55:37;54.20;;;17.65;;
58338;SDS011;48278;52.704;6.536;2022-10-31T07:58:07;74.50;;;19.63;;
58338;SDS011;48278;52.704;6.536;2022-10-31T08:00:35;67.25;;;18.70;;
58338;SDS011;48278;52.704;6.536;2022-10-31T08:03:08;76.50;;;21.75;;
58338;SDS011;48278;52.704;6.536;2022-10-31T08:05:35;54.75;;;18.58;;
58338;SDS011;48278;52.704;6.536;2022-10-31T08:08:02;54.45;;;20.00;;
58338;SDS011;48278;52.704;6.536;2022-10-31T08:10:28;67.03;;;21.88;;
58338;SDS011;48278;52.704;6.536;2022-10-31T08:12:58;65.53;;;20.23;;
58338;SDS011;48278;52.704;6.536;2022-10-31T08:15:26;57.22;;;22.15;;
58338;SDS011;48278;52.704;6.536;2022-10-31T08:17:52;64.20;;;22.83;;
58338;SDS011;48278;52.704;6.536;2022-10-31T08:20:18;62.97;;;23.30;;
58338;SDS011;48278;52.704;6.536;2022-10-31T08:22:54;66.03;;;23.63;;
58338;SDS011;48278;52.704;6.536;2022-10-31T08:25:20;58.08;;;22.98;;
58338;SDS011;48278;52.704;6.536;2022-10-31T08:27:50;53.80;;;23.10;;
58338;SDS011;48278;52.704;6.536;2022-10-31T08:30:20;62.97;;;22.17;;
58338;SDS011;48278;52.704;6.536;2022-10-31T08:32:47;72.03;;;24.10;;
58338;SDS011;48278;52.704;6.536;2022-10-31T08:35:21;53.55;;;22.90;;
58338;SDS011;48278;52.704;6.536;2022-10-31T08:37:51;53.65;;;23.52;;
58338;SDS011;48278;52.704;6.536;2022-10-31T08:40:20;57.00;;;23.75;;
58338;SDS011;48278;52.704;6.536;2022-10-31T08:42:46;57.95;;;23.27;;
58338;SDS011;48278;52.704;6.536;2022-10-31T08:45:12;61.85;;;24.35;;
58338;SDS011;48278;52.704;6.536;2022-10-31T08:47:37;53.50;;;23.23;;
58338;SDS011;48278;52.704;6.536;2022-10-31T08:50:03;50.58;;;23.77;;
58338;SDS011;48278;52.704;6.536;2022-10-31T08:52:29;49.67;;;23.30;;
58338;SDS011;48278;52.704;6.536;2022-10-31T08:54:55;50.95;;;23.02;;
58338;SDS011;48278;52.704;6.536;2022-10-31T08:57:20;55.20;;;24.20;;
58338;SDS011;48278;52.704;6.536;2022-10-31T08:59:46;60.65;;;25.35;;
58338;SDS011;48278;52.704;6.536;2022-10-31T09:02:12;58.40;;;23.85;;
58338;SDS011;48278;52.704;6.536;2022-10-31T09:04:37;55.15;;;24.33;;
58338;SDS011;48278;52.704;6.536;2022-10-31T09:07:03;50.88;;;23.63;;
58338;SDS011;48278;52.704;6.536;2022-10-31T09:09:29;55.92;;;24.33;;
58338;SDS011;48278;52.704;6.536;2022-10-31T09:11:54;50.17;;;24.40;;
58338;SDS011;48278;52.704;6.536;2022-10-31T09:14:20;53.53;;;26.13;;
58338;SDS011;48278;52.704;6.536;2022-10-31T09:16:46;54.85;;;24.98;;
58338;SDS011;48278;52.704;6.536;2022-10-31T09:19:11;60.08;;;26.08;;
58338;SDS011;48278;52.704;6.536;2022-10-31T09:21:37;57.42;;;25.98;;
58338;SDS011;48278;52.704;6.536;2022-10-31T09:24:03;60.33;;;27.02;;
58338;SDS011;48278;52.704;6.536;2022-10-31T09:26:29;55.05;;;25.98;;
58338;SDS011;48278;52.704;6.536;2022-10-31T09:28:55;57.80;;;27.25;;
58338;SDS011;48278;52.704;6.536;2022-10-31T09:31:22;53.53;;;25.20;;
58338;SDS011;48278;52.704;6.536;2022-10-31T09:33:48;53.90;;;26.23;;
58338;SDS011;48278;52.704;6.536;2022-10-31T09:36:14;53.38;;;26.60;;
58338;SDS011;48278;52.704;6.536;2022-10-31T09:38:39;55.45;;;25.80;;
58338;SDS011;48278;52.704;6.536;2022-10-31T09:44:02;51.85;;;25.80;;
58338;SDS011;48278;52.704;6.536;2022-10-31T09:46:57;50.40;;;24.98;;
58338;SDS011;48278;52.704;6.536;2022-10-31T09:52:42;52.90;;;24.95;;
58338;SDS011;48278;52.704;6.536;2022-10-31T09:55:30;52.10;;;25.20;;
58338;SDS011;48278;52.704;6.536;2022-10-31T09:58:01;46.60;;;23.15;;
58338;SDS011;48278;52.704;6.536;2022-10-31T10:00:27;49.10;;;24.48;;
58338;SDS011;48278;52.704;6.536;2022-10-31T10:03:16;50.53;;;23.55;;
58338;SDS011;48278;52.704;6.536;2022-10-31T10:06:09;47.65;;;22.80;;
58338;SDS011;48278;52.704;6.536;2022-10-31T10:08:41;45.33;;;23.42;;
58338;SDS011;48278;52.704;6.536;2022-10-31T10:16:30;45.60;;;23.63;;
58338;SDS011;48278;52.704;6.536;2022-10-31T10:19:10;43.20;;;24.38;;
58338;SDS011;48278;52.704;6.536;2022-10-31T10:21:51;46.47;;;24.00;;
58338;SDS011;48278;52.704;6.536;2022-10-31T10:32:41;36.17;;;19.58;;
58338;SDS011;48278;52.704;6.536;2022-10-31T10:38:26;32.47;;;17.20;;
58338;SDS011;48278;52.704;6.536;2022-10-31T10:40:53;36.25;;;18.45;;
58338;SDS011;48278;52.704;6.536;2022-10-31T10:43:21;38.65;;;19.15;;
58338;SDS011;48278;52.704;6.536;2022-10-31T11:00:16;36.28;;;17.33;;
58338;SDS011;48278;52.704;6.536;2022-10-31T11:02:46;35.58;;;18.33;;
58338;SDS011;48278;52.704;6.536;2022-10-31T11:05:15;34.50;;;18.13;;
58338;SDS011;48278;52.704;6.536;2022-10-31T11:07:53;34.88;;;17.73;;
58338;SDS011;48278;52.704;6.536;2022-10-31T11:10:19;32.10;;;17.27;;
58338;SDS011;48278;52.704;6.536;2022-10-31T11:13:17;30.85;;;16.40;;
58338;SDS011;48278;52.704;6.536;2022-10-31T11:15:39;28.90;;;16.08;;
58338;SDS011;48278;52.704;6.536;2022-10-31T11:18:21;30.10;;;16.63;;
58338;SDS011;48278;52.704;6.536;2022-10-31T11:20:53;30.83;;;16.75;;
58338;SDS011;48278;52.704;6.536;2022-10-31T11:23:22;27.80;;;15.63;;
58338;SDS011;48278;52.704;6.536;2022-10-31T11:25:56;32.30;;;15.98;;
58338;SDS011;48278;52.704;6.536;2022-10-31T11:28:25;26.98;;;14.25;;
58338;SDS011;48278;52.704;6.536;2022-10-31T11:33:24;26.05;;;14.10;;
58338;SDS011;48278;52.704;6.536;2022-10-31T11:35:56;26.67;;;12.77;;
58338;SDS011;48278;52.704;6.536;2022-10-31T11:38:24;24.23;;;12.68;;
58338;SDS011;48278;52.704;6.536;2022-10-31T11:41:00;25.25;;;11.65;;
58338;SDS011;48278;52.704;6.536;2022-10-31T11:43:35;25.40;;;10.85;;
58338;SDS011;48278;52.704;6.536;2022-10-31T11:46:08;22.75;;;9.65;;
58338;SDS011;48278;52.704;6.536;2022-10-31T11:48:36;27.65;;;10.88;;
58338;SDS011;48278;52.704;6.536;2022-10-31T11:51:04;22.42;;;9.82;;
58338;SDS011;48278;52.704;6.536;2022-10-31T11:53:35;18.52;;;9.63;;
58338;SDS011;48278;52.704;6.536;2022-10-31T11:58:35;21.30;;;9.68;;
58338;SDS011;48278;52.704;6.536;2022-10-31T12:01:01;25.20;;;9.48;;
58338;SDS011;48278;52.704;6.536;2022-10-31T12:06:03;21.45;;;9.32;;
58338;SDS011;48278;52.704;6.536;2022-10-31T12:08:36;17.52;;;9.05;;
58338;SDS011;48278;52.704;6.536;2022-10-31T12:35:36;22.17;;;8.55;;
58338;SDS011;48278;52.704;6.536;2022-10-31T12:43:45;16.77;;;8.10;;
58338;SDS011;48278;52.704;6.536;2022-10-31T12:52:02;20.75;;;7.95;;
58338;SDS011;48278;52.704;6.536;2022-10-31T12:54:45;18.42;;;7.70;;
58338;SDS011;48278;52.704;6.536;2022-10-31T12:57:41;19.42;;;7.95;;
58338;SDS011;48278;52.704;6.536;2022-10-31T13:00:16;19.05;;;8.40;;
58338;SDS011;48278;52.704;6.536;2022-10-31T13:02:47;18.65;;;8.27;;
58338;SDS011;48278;52.704;6.536;2022-10-31T13:05:41;17.52;;;8.10;;
58338;SDS011;48278;52.704;6.536;2022-10-31T13:08:14;19.10;;;8.45;;
58338;SDS011;48278;52.704;6.536;2022-10-31T13:10:44;18.10;;;8.32;;
58338;SDS011;48278;52.704;6.536;2022-10-31T13:24:27;19.13;;;7.93;;
58338;SDS011;48278;52.704;6.536;2022-10-31T13:30:13;17.65;;;6.90;;
58338;SDS011;48278;52.704;6.536;2022-10-31T13:43:55;16.80;;;6.22;;
58338;SDS011;48278;52.704;6.536;2022-10-31T13:49:00;13.07;;;6.25;;
58338;SDS011;48278;52.704;6.536;2022-10-31T13:51:27;15.93;;;6.22;;
58338;SDS011;48278;52.704;6.536;2022-10-31T13:53:59;15.27;;;6.38;;
58338;SDS011;48278;52.704;6.536;2022-10-31T13:56:30;13.88;;;6.32;;
58338;SDS011;48278;52.704;6.536;2022-10-31T14:01:27;12.73;;;6.35;;
58338;SDS011;48278;52.704;6.536;2022-10-31T14:04:02;15.43;;;7.32;;
58338;SDS011;48278;52.704;6.536;2022-10-31T14:07:04;15.10;;;6.40;;
58338;SDS011;48278;52.704;6.536;2022-10-31T14:09:35;17.23;;;6.70;;
58338;SDS011;48278;52.704;6.536;2022-10-31T14:12:05;15.95;;;6.32;;
58338;SDS011;48278;52.704;6.536;2022-10-31T14:14:57;14.82;;;7.07;;
58338;SDS011;48278;52.704;6.536;2022-10-31T14:17:45;16.52;;;7.05;;
58338;SDS011;48278;52.704;6.536;2022-10-31T14:28:42;12.88;;;6.18;;
58338;SDS011;48278;52.704;6.536;2022-10-31T14:33:53;15.20;;;6.45;;
58338;SDS011;48278;52.704;6.536;2022-10-31T14:36:22;16.63;;;7.03;;
58338;SDS011;48278;52.704;6.536;2022-10-31T14:39:04;20.02;;;7.30;;
58338;SDS011;48278;52.704;6.536;2022-10-31T14:53:00;17.35;;;8.02;;
58338;SDS011;48278;52.704;6.536;2022-10-31T14:55:29;18.38;;;8.45;;
58338;SDS011;48278;52.704;6.536;2022-10-31T14:58:00;17.02;;;8.35;;
58338;SDS011;48278;52.704;6.536;2022-10-31T15:00:32;24.15;;;8.55;;
58338;SDS011;48278;52.704;6.536;2022-10-31T15:05:50;17.70;;;8.55;;
58338;SDS011;48278;52.704;6.536;2022-10-31T15:08:50;18.20;;;8.73;;
58338;SDS011;48278;52.704;6.536;2022-10-31T15:11:21;18.65;;;8.15;;
58338;SDS011;48278;52.704;6.536;2022-10-31T15:13:50;16.92;;;8.40;;
58338;SDS011;48278;52.704;6.536;2022-10-31T15:16:19;17.80;;;8.20;;
58338;SDS011;48278;52.704;6.536;2022-10-31T15:19:10;15.90;;;8.00;;
58338;SDS011;48278;52.704;6.536;2022-10-31T15:21:42;18.48;;;7.78;;
58338;SDS011;48278;52.704;6.536;2022-10-31T15:24:15;14.25;;;7.68;;
58338;SDS011;48278;52.704;6.536;2022-10-31T15:26:44;20.98;;;8.18;;
58338;SDS011;48278;52.704;6.536;2022-10-31T15:29:13;18.17;;;9.05;;
58338;SDS011;48278;52.704;6.536;2022-10-31T15:34:18;16.40;;;8.38;;
58338;SDS011;48278;52.704;6.536;2022-10-31T15:37:02;19.50;;;8.55;;
58338;SDS011;48278;52.704;6.536;2022-10-31T15:39:28;19.13;;;8.23;;
58338;SDS011;48278;52.704;6.536;2022-10-31T15:41:55;20.88;;;8.90;;
58338;SDS011;48278;52.704;6.536;2022-10-31T15:49:32;19.15;;;8.27;;
58338;SDS011;48278;52.704;6.536;2022-10-31T15:52:09;17.02;;;8.38;;
58338;SDS011;48278;52.704;6.536;2022-10-31T15:54:54;18.08;;;8.13;;
58338;SDS011;48278;52.704;6.536;2022-10-31T15:57:24;20.80;;;9.45;;
58338;SDS011;48278;52.704;6.536;2022-10-31T15:59:53;18.55;;;8.02;;
58338;SDS011;48278;52.704;6.536;2022-10-31T16:02:23;17.17;;;7.78;;
58338;SDS011;48278;52.704;6.536;2022-10-31T16:04:57;19.20;;;8.68;;
58338;SDS011;48278;52.704;6.536;2022-10-31T16:07:25;20.02;;;8.35;;
58338;SDS011;48278;52.704;6.536;2022-10-31T16:12:23;20.13;;;9.48;;
58338;SDS011;48278;52.704;6.536;2022-10-31T16:15:16;22.58;;;9.90;;
58338;SDS011;48278;52.704;6.536;2022-10-31T16:17:45;25.83;;;10.43;;
58338;SDS011;48278;52.704;6.536;2022-10-31T16:20:21;24.23;;;10.45;;
58338;SDS011;48278;52.704;6.536;2022-10-31T16:22:52;32.03;;;11.98;;
58338;SDS011;48278;52.704;6.536;2022-10-31T16:25:29;25.15;;;11.52;;
58338;SDS011;48278;52.704;6.536;2022-10-31T16:28:02;28.70;;;11.95;;
58338;SDS011;48278;52.704;6.536;2022-10-31T16:30:41;32.35;;;11.73;;
58338;SDS011;48278;52.704;6.536;2022-10-31T16:36:38;26.50;;;11.60;;
58338;SDS011;48278;52.704;6.536;2022-10-31T16:39:00;25.30;;;10.73;;
58338;SDS011;48278;52.704;6.536;2022-10-31T16:41:25;28.98;;;11.00;;
58338;SDS011;48278;52.704;6.536;2022-10-31T16:43:51;23.75;;;11.35;;
58338;SDS011;48278;52.704;6.536;2022-10-31T16:46:24;23.92;;;11.32;;
58338;SDS011;48278;52.704;6.536;2022-10-31T16:48:52;27.25;;;11.63;;
58338;SDS011;48278;52.704;6.536;2022-10-31T16:51:18;29.35;;;11.85;;
58338;SDS011;48278;52.704;6.536;2022-10-31T16:53:44;24.33;;;11.35;;
58338;SDS011;48278;52.704;6.536;2022-10-31T16:56:31;24.38;;;11.70;;
58338;SDS011;48278;52.704;6.536;2022-10-31T16:58:58;26.30;;;11.73;;
58338;SDS011;48278;52.704;6.536;2022-10-31T17:01:28;26.85;;;11.77;;
58338;SDS011;48278;52.704;6.536;2022-10-31T17:03:55;29.05;;;12.25;;
58338;SDS011;48278;52.704;6.536;2022-10-31T17:06:21;24.52;;;11.20;;
58338;SDS011;48278;52.704;6.536;2022-10-31T17:08:46;23.45;;;11.85;;
58338;SDS011;48278;52.704;6.536;2022-10-31T17:11:14;26.35;;;12.38;;
58338;SDS011;48278;52.704;6.536;2022-10-31T17:13:43;29.40;;;13.02;;
58338;SDS011;48278;52.704;6.536;2022-10-31T17:16:09;26.65;;;12.20;;
58338;SDS011;48278;52.704;6.536;2022-10-31T17:18:39;28.60;;;12.32;;
58338;SDS011;48278;52.704;6.536;2022-10-31T17:21:05;27.60;;;12.50;;
58338;SDS011;48278;52.704;6.536;2022-10-31T17:23:31;31.17;;;13.43;;
58338;SDS011;48278;52.704;6.536;2022-10-31T17:25:57;30.38;;;14.25;;
58338;SDS011;48278;52.704;6.536;2022-10-31T17:28:25;28.98;;;14.05;;
58338;SDS011;48278;52.704;6.536;2022-10-31T17:30:52;34.17;;;14.50;;
58338;SDS011;48278;52.704;6.536;2022-10-31T17:33:20;27.63;;;13.27;;
58338;SDS011;48278;52.704;6.536;2022-10-31T17:35:45;32.13;;;13.15;;
58338;SDS011;48278;52.704;6.536;2022-10-31T17:38:11;27.83;;;13.30;;
58338;SDS011;48278;52.704;6.536;2022-10-31T17:40:38;31.70;;;13.35;;
58338;SDS011;48278;52.704;6.536;2022-10-31T17:43:06;30.85;;;13.85;;
58338;SDS011;48278;52.704;6.536;2022-10-31T17:45:33;35.22;;;13.05;;
58338;SDS011;48278;52.704;6.536;2022-10-31T17:48:06;29.48;;;12.90;;
58338;SDS011;48278;52.704;6.536;2022-10-31T17:50:35;35.28;;;15.82;;